CST,Max TemperatureF,Mean TemperatureF,Min TemperatureF,Max Dew PointF,MeanDew PointF,Min DewpointF,Max Humidity, Mean Humidity, Min Humidity, Max Sea Level PressureIn, Mean Sea Level PressureIn, Min Sea Level PressureIn, Max VisibilityMiles, Mean VisibilityMiles, Min VisibilityMiles, Max Wind SpeedMPH, Mean Wind SpeedMPH, Max Gust SpeedMPH,PrecipitationIn, CloudCover, Events, WindDirDegrees
2012-12-1,55,42,28,41,33,28,100,84,41,29.87,29.77,29.70,10,10,9,18,12,23,0.00,0,,247
2012-12-2,59,42,24,43,34,25,100,81,42,29.92,29.81,29.62,10,10,10,23,8,31,0.00,0,,168
2012-12-3,53,42,32,46,33,19,100,70,30,30.01,29.74,29.49,10,10,10,31,17,40,0.00,0,,252
2012-12-4,39,30,21,25,20,16,80,64,52,30.30,30.18,30.02,10,10,10,13,9,,0.00,0,,350
2012-12-5,48,34,19,25,20,12,86,57,34,30.29,29.94,29.68,10,10,10,25,15,32,0.00,0,,161
2012-12-6,48,38,28,34,26,23,80,62,37,29.99,29.90,29.69,10,10,10,22,15,31,0.00,4,Rain,327
2012-12-7,28,24,19,28,25,19,100,92,80,30.00,29.97,29.92,10,7,0,14,6,,3.53,6,Fog-Snow,87
2012-12-8,32,24,15,32,25,16,100,100,100,29.98,29.87,29.76,10,5,0,26,9,36,0.39,8,Fog-Rain-Snow,157
2012-12-9,32,16,0,32,17,0,100,99,85,30.10,29.89,29.72,10,4,0,36,18,45,20.08,6,Rain-Snow,344
2012-12-10,17,4,-9,18,4,-11,100,97,92,30.09,29.89,29.77,10,10,10,17,10,16,0.00,2,Snow,250
2012-12-11,28,22,15,28,21,16,100,99,93,29.85,29.82,29.78,10,9,3,16,10,20,0.00,4,Snow,238
2012-12-12,35,26,17,30,22,18,100,82,69,29.80,29.76,29.71,10,10,10,16,10,21,0.00,0,,179
2012-12-13,30,22,14,25,19,14,100,96,69,30.05,29.95,29.78,10,8,0,14,8,,0.00,2,Fog,76
2012-12-14,37,26,15,37,26,16,100,98,87,30.03,29.82,29.60,10,10,6,14,7,,0.00,1,,142
2012-12-15,37,28,19,37,30,19,100,100,100,29.68,29.57,29.50,10,4,1,17,9,22,1.46,7,Rain-Snow,358
2012-12-16,23,18,14,23,19,14,100,100,100,29.79,29.75,29.68,10,7,0,12,8,16,0.00,7,Fog,7
2012-12-17,24,20,17,25,22,18,100,100,100,29.76,29.65,29.54,10,7,2,14,7,17,0.05,8,Snow,132
2012-12-18,28,22,17,28,25,18,100,100,100,29.81,29.62,29.49,10,6,0,15,9,17,0.81,6,Fog-Rain-Snow,216
2012-12-19,28,21,14,27,20,14,100,100,93,30.01,29.92,29.81,10,10,10,17,7,22,0.00,4,,306
2012-12-20,15,10,5,16,12,5,100,100,100,30.16,30.05,29.97,10,10,7,25,17,31,0.09,5,Rain-Snow,330
2012-12-21,17,9,1,16,10,1,100,98,86,30.23,30.16,30.04,10,10,10,14,6,,0.00,0,,146
2012-12-22,23,14,6,23,14,7,100,100,100,30.04,29.98,29.90,10,10,10,16,9,17,0.00,0,,45
2012-12-23,14,8,1,14,8,1,100,100,100,30.04,30.00,29.96,10,10,10,13,9,,0.00,3,Snow,58
2012-12-24,8,2,-4,9,3,-4,100,96,72,30.29,30.11,29.97,10,10,9,16,11,17,0.11,2,Snow,354
2012-12-25,5,-1,-7,3,-2,-8,100,93,85,30.46,30.38,30.30,10,10,10,12,7,,0.00,2,,340
2012-12-26,10,5,0,9,4,0,100,94,79,30.32,30.20,30.11,10,10,10,10,5,,0.00,4,,112
2012-12-27,17,12,8,18,13,9,100,100,100,30.11,30.05,30.01,10,6,0,14,10,,0.91,7,Snow,109
2012-12-28,14,8,1,14,11,1,100,100,100,30.04,30.01,29.99,10,9,3,10,8,,0.40,6,Snow,3
2012-12-29,14,6,-2,14,7,-2,100,100,100,30.10,30.06,30.02,10,7,0,12,7,,0.02,4,Fog-Snow,250
2012-12-30,23,12,0,23,11,0,100,100,100,30.09,29.97,29.81,10,10,10,22,9,26,0.00,1,Snow,206
2012-12-31,17,12,6,18,11,7,100,100,100,30.19,30.15,30.07,10,10,10,20,11,29,0.00,5,Snow,41